createdAt,value
2019-05-29T00:04:20.285Z,11.00
2019-05-29T00:09:26.200Z,11.10
2019-05-29T00:14:31.233Z,11.00
2019-05-29T00:19:38.032Z,10.70
2019-05-29T00:24:43.562Z,10.50
2019-05-29T00:29:48.580Z,10.30
2019-05-29T00:34:53.835Z,10.30
2019-05-29T00:39:59.862Z,10.20
2019-05-29T00:45:07.212Z,10.10
2019-05-29T00:50:12.620Z,10.10
2019-05-29T00:55:18.751Z,10.00
2019-05-29T01:00:23.979Z,10.10
2019-05-29T01:05:29.177Z,10.00
2019-05-29T01:10:34.627Z,10.00
2019-05-29T01:15:39.722Z,9.90
2019-05-29T01:20:44.689Z,9.90
2019-05-29T01:25:49.586Z,9.90
2019-05-29T01:30:54.533Z,9.80
2019-05-29T01:36:00.253Z,10.60
2019-05-29T01:41:05.152Z,10.60
2019-05-29T01:46:10.491Z,10.90
2019-05-29T01:51:16.028Z,11.20
2019-05-29T01:56:21.926Z,10.90
2019-05-29T02:01:28.191Z,11.00
2019-05-29T02:06:33.278Z,11.00
2019-05-29T02:11:38.257Z,11.20
2019-05-29T02:16:43.537Z,11.00
2019-05-29T02:21:48.797Z,11.00
2019-05-29T02:26:54.365Z,11.00
2019-05-29T02:31:59.391Z,11.00
2019-05-29T02:37:04.916Z,10.10
2019-05-29T02:42:10.335Z,10.80
2019-05-29T02:47:15.596Z,10.80
2019-05-29T02:52:21.947Z,11.00
2019-05-29T02:57:28.920Z,11.10
2019-05-29T03:02:34.136Z,10.70
2019-05-29T03:07:39.494Z,10.80
2019-05-29T03:12:44.644Z,10.70
2019-05-29T03:17:50.002Z,10.70
2019-05-29T03:22:55.304Z,10.70
2019-05-29T03:28:00.779Z,11.00
2019-05-29T03:33:06.163Z,11.10
2019-05-29T03:38:11.229Z,10.70
2019-05-29T03:43:16.206Z,11.00
2019-05-29T03:48:21.552Z,11.00
2019-05-29T03:53:27.095Z,11.10
2019-05-29T03:58:33.542Z,10.60
2019-05-29T04:03:39.321Z,10.70
2019-05-29T04:08:44.587Z,10.80
2019-05-29T04:13:49.702Z,10.70
2019-05-29T04:18:55.453Z,10.50
2019-05-29T04:24:03.536Z,10.80
2019-05-29T04:29:09.131Z,11.00
2019-05-29T04:34:15.206Z,11.80
2019-05-29T04:39:20.568Z,12.10
2019-05-29T04:44:26.129Z,13.00
2019-05-29T04:49:33.562Z,13.20
2019-05-29T04:54:40.032Z,13.80
2019-05-29T04:59:45.989Z,14.20
2019-05-29T05:04:51.221Z,13.10
2019-05-29T05:09:56.554Z,13.10
2019-05-29T05:15:02.627Z,13.30
2019-05-29T05:20:07.819Z,13.60
2019-05-29T05:25:13.082Z,13.40
2019-05-29T05:30:18.743Z,14.30
2019-05-29T05:35:24.086Z,14.40
2019-05-29T05:40:29.158Z,15.00
2019-05-29T05:45:35.090Z,14.90
2019-05-29T05:50:41.225Z,14.50
2019-05-29T05:55:47.125Z,14.20
2019-05-29T06:00:52.302Z,14.30
2019-05-29T06:05:57.227Z,14.50
2019-05-29T06:11:02.481Z,14.70
2019-05-29T06:16:08.110Z,15.00
2019-05-29T06:21:13.104Z,15.10
2019-05-29T06:26:18.539Z,15.10
2019-05-29T06:31:27.086Z,15.10
2019-05-29T06:36:31.156Z,15.30
2019-05-29T06:41:37.739Z,15.00
2019-05-29T06:46:45.131Z,15.50
2019-05-29T06:51:50.054Z,15.10
2019-05-29T06:56:55.009Z,16.30
2019-05-29T07:01:59.905Z,16.80
2019-05-29T07:07:05.194Z,15.60
2019-05-29T07:12:10.633Z,16.10
2019-05-29T07:17:15.729Z,16.30
2019-05-29T07:22:20.657Z,16.90
2019-05-29T07:27:26.130Z,16.80
2019-05-29T07:32:31.430Z,15.40
2019-05-29T07:37:37.725Z,17.70
2019-05-29T07:42:49.595Z,18.90
2019-05-29T07:47:50.818Z,18.80
2019-05-29T07:52:55.974Z,17.30
2019-05-29T07:58:01.388Z,17.10
2019-05-29T08:03:06.733Z,15.90
2019-05-29T08:08:11.651Z,16.70
2019-05-29T08:13:16.628Z,17.90
2019-05-29T08:18:22.265Z,17.10
2019-05-29T08:23:27.518Z,18.00
2019-05-29T08:28:32.651Z,18.60
2019-05-29T08:33:37.925Z,17.10
2019-05-29T08:38:44.249Z,17.20
2019-05-29T08:43:50.622Z,18.40
2019-05-29T08:48:57.087Z,18.30
2019-05-29T08:54:02.380Z,17.80
2019-05-29T08:59:08.010Z,18.30
2019-05-29T09:04:13.449Z,18.50
2019-05-29T09:09:18.422Z,16.60
2019-05-29T09:14:23.861Z,19.00
2019-05-29T09:30:17.101Z,20.20
2019-05-29T09:35:34.416Z,19.90
2019-05-29T09:40:39.384Z,17.50
2019-05-29T09:45:44.348Z,18.10
2019-05-29T09:50:50.853Z,18.00
2019-05-29T09:55:57.802Z,17.90
2019-05-29T10:01:17.147Z,18.90
2019-05-29T10:06:10.120Z,19.50
2019-05-29T10:11:15.349Z,19.50
2019-05-29T10:16:20.400Z,18.70
2019-05-29T10:21:39.202Z,17.90
2019-05-29T10:26:32.378Z,17.90
2019-05-29T10:31:38.039Z,18.40
2019-05-29T10:36:46.874Z,19.00
2019-05-29T10:41:50.881Z,20.50
2019-05-29T10:46:56.670Z,20.50
2019-05-29T10:52:14.819Z,18.90
2019-05-29T10:57:09.126Z,19.30
2019-05-29T11:02:14.362Z,18.80
2019-05-29T11:07:19.233Z,19.00
2019-05-29T11:12:24.385Z,18.80
2019-05-29T11:17:29.626Z,19.30
2019-05-29T11:22:35.001Z,19.30
2019-05-29T11:27:40.168Z,19.10
2019-05-29T11:32:47.689Z,18.60
2019-05-29T11:37:52.615Z,21.60
2019-05-29T11:42:59.174Z,19.30
2019-05-29T11:48:05.298Z,20.30
2019-05-29T11:53:10.584Z,21.70
2019-05-29T11:58:30.553Z,20.60
2019-05-29T12:03:22.966Z,20.70
2019-05-29T12:08:27.895Z,20.00
2019-05-29T12:13:33.171Z,19.80
2019-05-29T12:18:38.473Z,22.20
2019-05-29T12:23:43.338Z,22.20
2019-05-29T12:28:48.604Z,22.00
2019-05-29T12:33:54.980Z,19.90
2019-05-29T12:39:02.163Z,19.30
2019-05-29T12:44:07.663Z,20.10
2019-05-29T12:49:12.590Z,20.10
2019-05-29T12:54:18.504Z,19.30
2019-05-29T12:59:23.400Z,19.50
2019-05-29T13:04:29.029Z,21.50
2019-05-29T13:09:34.231Z,19.70
2019-05-29T13:14:39.469Z,19.80
2019-05-29T13:19:44.406Z,21.50
2019-05-29T13:24:52.597Z,21.80
2019-05-29T13:30:00.020Z,21.30
2019-05-29T13:35:06.178Z,21.90
2019-05-29T13:40:11.709Z,22.40
2019-05-29T13:45:18.620Z,22.70
2019-05-29T13:50:24.392Z,20.30
2019-05-29T13:55:30.260Z,21.50
2019-05-29T14:00:36.126Z,23.50
2019-05-29T14:05:41.673Z,21.40
2019-05-29T14:10:46.958Z,21.80
2019-05-29T14:15:52.251Z,21.70
2019-05-29T14:20:58.112Z,21.70
2019-05-29T14:26:04.315Z,20.70
2019-05-29T14:31:10.023Z,21.20
2019-05-29T14:36:15.326Z,20.20
2019-05-29T14:41:20.296Z,21.10
2019-05-29T14:46:26.081Z,22.50
2019-05-29T14:51:31.264Z,22.50
2019-05-29T14:56:36.541Z,22.40
2019-05-29T15:01:41.920Z,21.20
2019-05-29T15:06:47.671Z,21.00
2019-05-29T15:11:52.842Z,20.90
2019-05-29T15:16:58.109Z,20.70
2019-05-29T15:22:03.398Z,23.10
2019-05-29T15:27:09.662Z,21.20
2019-05-29T15:32:15.056Z,20.80
2019-05-29T15:37:20.374Z,20.20
2019-05-29T15:42:25.461Z,20.60
2019-05-29T15:47:30.454Z,21.30
2019-05-29T15:52:35.490Z,21.80
2019-05-29T15:57:40.468Z,22.20
2019-05-29T16:02:48.943Z,22.80
2019-05-29T16:07:52.861Z,21.90
2019-05-29T16:12:58.075Z,22.00
2019-05-29T16:18:03.091Z,20.40
2019-05-29T16:23:08.317Z,21.30
2019-05-29T16:28:13.422Z,21.30
2019-05-29T16:33:19.474Z,21.10
2019-05-29T16:38:24.665Z,20.90
2019-05-29T16:43:30.156Z,20.70
2019-05-29T16:48:35.544Z,21.00
2019-05-29T16:53:40.527Z,20.20
2019-05-29T16:58:45.543Z,21.50
2019-05-29T17:03:50.811Z,21.50
2019-05-29T17:08:55.871Z,21.10
2019-05-29T17:14:01.033Z,20.80
2019-05-29T17:19:06.380Z,20.80
2019-05-29T17:24:11.361Z,20.70
2019-05-29T17:29:16.877Z,20.90
2019-05-29T17:34:23.110Z,20.70
2019-05-29T17:39:28.253Z,21.50
2019-05-29T17:44:33.799Z,20.90
2019-05-29T17:49:38.714Z,20.60
2019-05-29T17:54:44.262Z,20.80
2019-05-29T17:59:49.248Z,21.10
2019-05-29T18:04:54.908Z,20.60
2019-05-29T18:10:01.006Z,20.40
2019-05-29T18:15:07.284Z,20.20
2019-05-29T18:20:14.648Z,20.30
2019-05-29T18:25:19.966Z,20.60
2019-05-29T18:30:26.144Z,20.80
2019-05-29T18:35:31.685Z,20.50
2019-05-29T18:40:36.978Z,20.40
2019-05-29T18:45:42.566Z,20.60
2019-05-29T18:50:48.178Z,20.40
2019-05-29T18:55:53.799Z,20.30
2019-05-29T19:01:00.091Z,20.20
2019-05-29T19:06:05.718Z,20.10
2019-05-29T19:11:10.820Z,19.80
2019-05-29T19:16:16.262Z,19.90
2019-05-29T19:21:22.304Z,19.80
2019-05-29T19:26:28.731Z,19.90
2019-05-29T19:31:34.882Z,19.90
2019-05-29T19:36:40.187Z,20.00
2019-05-29T19:41:45.330Z,19.80
2019-05-29T19:46:54.037Z,19.80
2019-05-29T19:51:57.830Z,19.80
2019-05-29T19:57:03.445Z,19.70
2019-05-29T20:02:09.337Z,19.40
2019-05-29T20:07:14.705Z,19.40
2019-05-29T20:12:19.990Z,19.30
2019-05-29T20:17:25.511Z,19.30
2019-05-29T20:22:30.775Z,19.20
2019-05-29T20:27:36.335Z,19.20
2019-05-29T20:32:42.978Z,19.20
2019-05-29T20:37:48.707Z,19.10
2019-05-29T20:42:53.978Z,18.80
2019-05-29T20:47:59.494Z,18.70
2019-05-29T20:53:04.421Z,18.60
2019-05-29T20:58:23.989Z,18.50
2019-05-29T21:03:17.021Z,18.40
2019-05-29T21:08:22.363Z,18.40
2019-05-29T21:13:27.913Z,18.00
2019-05-29T21:18:33.836Z,18.20
2019-05-29T21:23:40.368Z,18.00
2019-05-29T21:28:50.062Z,17.80
2019-05-29T21:33:51.944Z,17.60
2019-05-29T21:38:56.851Z,17.60
2019-05-29T21:44:01.890Z,17.50
2019-05-29T21:49:06.977Z,17.50
2019-05-29T21:54:12.362Z,17.40
2019-05-29T21:59:17.605Z,17.30
2019-05-29T22:04:22.906Z,17.20
2019-05-29T22:09:27.828Z,17.10
2019-05-29T22:14:33.841Z,17.20
2019-05-29T22:19:39.035Z,17.00
2019-05-29T22:24:43.945Z,16.80
2019-05-29T22:29:49.161Z,16.90
2019-05-29T22:34:55.422Z,16.90
2019-05-29T22:40:01.872Z,16.90
2019-05-29T22:45:08.203Z,16.90
2019-05-29T22:50:13.376Z,16.80
2019-05-29T22:55:19.383Z,16.70
2019-05-29T23:00:24.713Z,16.70
2019-05-29T23:05:30.097Z,16.70
2019-05-29T23:10:35.569Z,16.70
2019-05-29T23:15:41.345Z,16.60
2019-05-29T23:20:46.884Z,16.70
2019-05-29T23:25:52.574Z,16.60
2019-05-29T23:30:58.800Z,16.40
2019-05-29T23:36:03.856Z,16.50
2019-05-29T23:41:09.508Z,16.50
2019-05-29T23:46:14.899Z,16.50
2019-05-29T23:51:20.105Z,16.50
2019-05-29T23:56:25.094Z,16.40
